Time;durP1;ratioP1;P1;durP2;ratioP2;P2;SDS_P1;SDS_P2;PMS_P1;PMS_P2;Temp;Humidity;BMP_temperature;BMP_pressure;BME280_temperature;BME280_humidity;BME280_pressure;Samples;Min_cycle;Max_cycle;Signal;HPM_P1;HPM_P2
2022/11/01 00:01:44;;;;;;;8.10;3.30;;;;;;;13.44;72.61;95552.25;4955978;28;20209;-83
2022/11/01 00:04:09;;;;;;;5.47;3.00;;;;;;;13.46;72.40;95549.47;4940354;28;20208;-83
2022/11/01 00:06:35;;;;;;;4.30;3.00;;;;;;;13.50;72.21;95542.91;4956709;29;20204;-84
2022/11/01 00:09:00;;;;;;;7.10;3.03;;;;;;;13.56;71.19;95545.69;4956427;28;20646;-84
2022/11/01 00:11:25;;;;;;;7.17;3.10;;;;;;;13.56;70.59;95535.25;4956172;28;20216;-86
2022/11/01 00:13:51;;;;;;;5.50;3.10;;;;;;;13.54;70.68;95537.22;4956215;28;20200;-84
2022/11/01 00:16:17;;;;;;;5.97;2.90;;;;;;;13.61;69.92;95540.00;4954925;28;20732;-83
2022/11/01 00:18:42;;;;;;;8.67;3.00;;;;;;;13.69;69.19;95534.72;4939573;29;20220;-83
2022/11/01 00:21:08;;;;;;;8.47;3.43;;;;;;;13.74;68.66;95540.28;4955670;29;20228;-86
2022/11/01 00:23:34;;;;;;;7.93;3.40;;;;;;;13.78;69.01;95538.13;4955801;29;20212;-86
2022/11/01 00:26:00;;;;;;;5.63;3.03;;;;;;;13.81;69.06;95533.41;4954823;29;20232;-85
2022/11/01 00:28:29;;;;;;;4.57;2.87;;;;;;;13.75;69.34;95536.69;4955711;28;20193;-84
2022/11/01 00:30:55;;;;;;;8.90;3.30;;;;;;;13.74;69.47;95536.84;4954405;29;20236;-86
2022/11/01 00:33:21;;;;;;;5.57;3.03;;;;;;;13.73;69.95;95538.66;4955066;28;20189;-83
2022/11/01 00:35:47;;;;;;;5.03;3.43;;;;;;;13.70;70.32;95544.22;4957020;28;20200;-84
2022/11/01 00:38:13;;;;;;;8.30;3.20;;;;;;;13.75;70.46;95536.69;4958565;28;20212;-85
2022/11/01 00:40:38;;;;;;;9.07;3.10;;;;;;;13.76;69.99;95535.69;4958882;28;20616;-83
2022/11/01 00:43:04;;;;;;;7.23;3.37;;;;;;;13.69;70.66;95542.56;4958771;28;20268;-83
2022/11/01 00:45:29;;;;;;;8.17;4.30;;;;;;;13.63;70.92;95540.63;4957455;29;20658;-84
2022/11/01 00:47:54;;;;;;;7.20;3.67;;;;;;;13.71;70.53;95543.22;4956626;28;20197;-83
2022/11/01 00:50:20;;;;;;;6.07;3.33;;;;;;;13.66;70.11;95540.28;4958033;28;20209;-84
2022/11/01 00:52:45;;;;;;;5.87;3.10;;;;;;;13.72;70.30;95544.84;4954084;28;20187;-83
2022/11/01 00:55:10;;;;;;;6.80;3.50;;;;;;;13.77;69.75;95550.38;4956363;28;20813;-85
2022/11/01 00:57:36;;;;;;;9.87;4.10;;;;;;;13.79;69.75;95547.63;4957784;29;20271;-83
2022/11/01 01:00:03;;;;;;;6.60;3.50;;;;;;;13.84;69.14;95543.50;4955512;28;20212;-84
2022/11/01 01:02:28;;;;;;;8.33;3.43;;;;;;;13.91;68.87;95545.44;4957036;28;20186;-85
2022/11/01 01:04:53;;;;;;;5.37;3.03;;;;;;;13.96;68.78;95546.59;4957298;29;20219;-83
2022/11/01 01:07:19;;;;;;;7.80;3.13;;;;;;;14.00;68.66;95544.44;4956997;29;20235;-84
2022/11/01 01:09:44;;;;;;;7.17;3.17;;;;;;;14.04;68.15;95535.28;4940880;29;20209;-83
2022/11/01 01:12:09;;;;;;;8.57;3.73;;;;;;;14.09;67.71;95540.81;4954885;28;20550;-83
2022/11/01 01:14:35;;;;;;;8.23;3.47;;;;;;;14.12;67.68;95545.69;4954170;28;20197;-83
2022/11/01 01:17:00;;;;;;;6.53;3.30;;;;;;;14.12;67.95;95540.47;4954932;29;20213;-85
2022/11/01 01:19:27;;;;;;;7.73;3.50;;;;;;;14.16;68.06;95539.97;4956686;29;20185;-84
2022/11/01 01:21:52;;;;;;;5.60;3.10;;;;;;;14.15;68.29;95542.75;4945773;28;20168;-82
2022/11/01 01:24:18;;;;;;;7.07;3.57;;;;;;;14.15;68.85;95551.41;4978342;28;20276;-82
2022/11/01 01:26:43;;;;;;;7.17;3.83;;;;;;;14.13;69.01;95550.78;4981652;28;20192;-81
2022/11/01 01:29:08;;;;;;;8.77;3.60;;;;;;;14.12;69.46;95546.50;4980797;28;20257;-82
2022/11/01 01:31:33;;;;;;;8.77;3.40;;;;;;;14.12;69.77;95541.28;4980126;28;20269;-82
2022/11/01 01:33:59;;;;;;;8.90;3.40;;;;;;;14.16;69.92;95544.38;4978220;28;20240;-84
2022/11/01 01:36:24;;;;;;;7.67;4.17;;;;;;;14.05;70.17;95548.19;4955637;29;20584;-84
2022/11/01 01:38:51;;;;;;;9.53;3.70;;;;;;;14.03;70.70;95541.47;4940042;29;20201;-84
2022/11/01 01:44:02;;;;;;;9.10;3.47;;;;;;;14.07;70.60;95535.78;4954488;29;20239;-84
2022/11/01 01:46:27;;;;;;;7.43;3.93;;;;;;;14.12;70.62;95540.47;4951569;28;20232;-83
2022/11/01 01:48:56;;;;;;;8.27;4.00;;;;;;;14.05;70.95;95535.13;4954117;29;20198;-83
2022/11/01 01:51:23;;;;;;;9.67;3.90;;;;;;;14.01;70.82;95544.25;4938336;28;20235;-83
2022/11/01 01:53:53;;;;;;;11.33;3.43;;;;;;;14.03;70.86;95541.47;4954396;28;20653;-84
2022/11/01 01:56:21;;;;;;;9.10;3.47;;;;;;;14.05;70.53;95544.75;4937582;29;20196;-82
2022/11/01 01:58:51;;;;;;;12.27;3.90;;;;;;;14.04;70.28;95546.53;4954203;29;20185;-84
2022/11/01 02:01:17;;;;;;;7.03;3.80;;;;;;;14.08;69.98;95550.44;4954069;28;20217;-83
2022/11/01 02:03:43;;;;;;;9.07;3.57;;;;;;;14.10;69.54;95558.09;4954129;28;20787;-84
2022/11/01 02:06:11;;;;;;;10.83;3.87;;;;;;;14.12;69.49;95561.34;4953924;28;20200;-83
2022/11/01 02:08:42;;;;;;;5.97;3.50;;;;;;;14.09;69.70;95565.13;4953517;28;20200;-83
2022/11/01 02:11:08;;;;;;;10.73;3.60;;;;;;;14.09;69.66;95551.25;4951574;28;20205;-83
2022/11/01 02:13:34;;;;;;;7.47;3.50;;;;;;;14.12;69.63;95545.69;4954397;29;20220;-83
2022/11/01 02:16:08;;;;;;;8.40;3.40;;;;;;;14.12;69.54;95549.13;4953117;28;20185;-83
2022/11/01 02:18:58;;;;;;;10.73;3.70;;;;;;;14.14;69.74;95556.81;4951677;28;20193;-84
2022/11/01 02:21:45;;;;;;;5.93;3.83;;;;;;;14.10;70.46;95547.66;4958604;28;20213;-84
2022/11/01 02:24:28;;;;;;;11.50;4.00;;;;;;;14.22;70.03;95559.34;4959276;28;20225;-84
2022/11/01 02:27:16;;;;;;;7.10;3.80;;;;;;;14.54;68.49;95547.16;4973305;28;20224;-84
2022/11/01 02:30:03;;;;;;;11.17;3.93;;;;;;;14.83;67.29;95543.88;4959470;28;20208;-85
2022/11/01 02:32:51;;;;;;;9.45;3.97;;;;;;;14.90;67.04;95536.97;4957728;28;20193;-84
2022/11/01 02:35:37;;;;;;;10.48;4.22;;;;;;;15.07;66.19;95542.91;4955659;29;20232;-83
2022/11/01 02:38:08;;;;;;;9.87;3.67;;;;;;;15.17;66.20;95543.47;4953309;29;20649;-84
2022/11/01 02:40:51;;;;;;;11.03;3.90;;;;;;;15.22;66.22;95552.44;4953776;29;20209;-83
2022/11/01 02:43:21;;;;;;;12.17;3.63;;;;;;;15.24;66.70;95537.38;4953454;29;20363;-84
2022/11/01 02:45:49;;;;;;;6.60;3.40;;;;;;;15.29;67.04;95526.38;4949423;29;20298;-84
2022/11/01 02:48:18;;;;;;;10.83;4.07;;;;;;;15.24;67.26;95531.31;4953456;29;20194;-83
2022/11/01 02:51:03;;;;;;;8.48;4.43;;;;;;;15.17;67.71;95541.66;4954314;29;20205;-85
2022/11/01 02:53:29;;;;;;;12.68;3.80;;;;;;;15.15;67.78;95535.00;4955370;29;20200;-84
2022/11/01 02:55:54;;;;;;;10.80;4.17;;;;;;;15.12;68.13;95541.41;4957494;29;20197;-84
2022/11/01 02:58:24;;;;;;;13.33;4.33;;;;;;;15.10;68.15;95538.13;4957461;28;20204;-83
2022/11/01 03:00:50;;;;;;;13.38;4.13;;;;;;;15.11;68.65;95538.97;4956560;29;20208;-83
2022/11/01 03:03:16;;;;;;;11.30;4.27;;;;;;;15.23;68.25;95537.53;4956140;28;20616;-84
2022/11/01 03:05:53;;;;;;;9.57;4.10;;;;;;;15.26;68.04;95524.91;4957866;28;20227;-84
2022/11/01 03:08:23;;;;;;;7.78;4.22;;;;;;;15.22;68.31;95517.59;4955168;29;20188;-84
2022/11/01 03:11:07;;;;;;;11.00;3.75;;;;;;;15.23;68.46;95524.47;4938462;29;20715;-83
2022/11/01 03:13:52;;;;;;;10.70;4.20;;;;;;;15.20;68.83;95522.22;4954142;28;20234;-84
2022/11/01 03:16:36;;;;;;;11.23;4.60;;;;;;;15.13;70.07;95534.34;4956998;28;20211;-85
2022/11/01 03:19:30;;;;;;;11.73;4.22;;;;;;;15.23;69.18;95546.19;4940196;29;20296;-83
2022/11/01 03:22:15;;;;;;;10.73;3.85;;;;;;;15.35;68.44;95551.00;4939013;29;20194;-84
2022/11/01 03:24:47;;;;;;;7.63;3.92;;;;;;;15.43;68.03;95558.78;4969788;28;20670;-84
2022/11/01 03:27:18;;;;;;;10.63;4.75;;;;;;;15.45;68.02;95562.84;4953203;29;20196;-86
2022/11/01 03:29:47;;;;;;;10.20;3.83;;;;;;;15.54;67.75;95563.59;4936362;29;20588;-85
2022/11/01 03:32:14;;;;;;;9.65;4.38;;;;;;;15.72;66.50;95573.75;4956879;28;20661;-83
2022/11/01 03:34:41;;;;;;;9.70;4.25;;;;;;;15.83;66.33;95583.81;4968460;29;20177;-85
2022/11/01 03:37:10;;;;;;;8.25;3.33;;;;;;;15.82;66.16;95593.47;4954119;28;20189;-83
2022/11/01 03:39:40;;;;;;;9.02;3.83;;;;;;;15.89;66.26;95597.97;4966204;29;20204;-85
2022/11/01 03:42:11;;;;;;;11.57;4.03;;;;;;;15.82;66.76;95596.09;4963954;29;20719;-86
2022/11/01 03:44:40;;;;;;;11.23;4.13;;;;;;;15.73;66.96;95591.13;4960685;29;20264;-83
2022/11/01 03:47:05;;;;;;;11.45;4.00;;;;;;;15.66;67.23;95596.25;4962195;28;20677;-83
2022/11/01 03:49:31;;;;;;;9.35;3.85;;;;;;;15.74;67.15;95592.75;4961872;28;20220;-84
2022/11/01 03:51:56;;;;;;;11.43;4.72;;;;;;;15.64;67.59;95606.09;4961932;29;20189;-85
2022/11/01 03:54:21;;;;;;;9.68;3.95;;;;;;;15.52;68.33;95600.41;4962357;28;20181;-84
2022/11/01 03:56:47;;;;;;;6.85;3.85;;;;;;;15.51;68.13;95601.41;4960998;28;20215;-83
2022/11/01 03:59:12;;;;;;;11.70;3.90;;;;;;;15.42;68.22;95592.00;4961284;28;20732;-86
2022/11/01 04:01:37;;;;;;;9.10;3.43;;;;;;;15.51;67.70;95609.25;4960395;29;20213;-85
2022/11/01 04:04:03;;;;;;;8.75;4.30;;;;;;;15.50;67.79;95618.09;4960901;28;20201;-86
2022/11/01 04:06:28;;;;;;;7.97;3.15;;;;;;;15.45;68.09;95617.78;4959771;29;20192;-86
2022/11/01 04:08:53;;;;;;;8.48;3.78;;;;;;;15.51;67.69;95626.75;4959585;28;20185;-84
2022/11/01 04:11:18;;;;;;;7.65;3.47;;;;;;;15.47;68.55;95615.84;4959243;28;20260;-86
2022/11/01 04:13:48;;;;;;;7.65;3.00;;;;;;;15.43;68.18;95601.47;4960507;29;20181;-85
2022/11/01 04:21:41;;;;;;;6.03;2.47;;;;;;;15.47;68.39;95655.09;4957680;29;20220;-83
2022/11/01 04:24:07;;;;;;;5.32;2.67;;;;;;;15.42;68.75;95657.41;4959601;28;20205;-86
2022/11/01 04:26:32;;;;;;;6.00;2.80;;;;;;;15.37;69.42;95670.22;4942488;28;20253;-84
2022/11/01 04:28:58;;;;;;;3.50;1.80;;;;;;;15.32;70.72;95659.44;4958307;29;20245;-85
2022/11/01 04:31:30;;;;;;;5.95;2.15;;;;;;;15.32;70.93;95666.47;4958322;29;20205;-84
2022/11/01 04:33:56;;;;;;;4.75;1.90;;;;;;;15.22;71.73;95672.75;4958254;28;20624;-82
2022/11/01 04:36:22;;;;;;;3.38;2.22;;;;;;;15.27;72.24;95674.84;4957532;28;20570;-84
2022/11/01 04:38:51;;;;;;;6.28;1.75;;;;;;;15.24;72.48;95672.59;4957524;29;20201;-84
2022/11/01 04:41:21;;;;;;;3.85;1.67;;;;;;;15.28;72.90;95672.06;4940279;29;20208;-86
2022/11/01 04:43:46;;;;;;;2.27;1.30;;;;;;;15.14;73.64;95664.16;4942420;28;20204;-84
2022/11/01 04:46:12;;;;;;;5.60;1.63;;;;;;;15.13;73.89;95647.63;4958345;28;20265;-85
2022/11/01 04:48:38;;;;;;;3.10;1.40;;;;;;;15.13;74.23;95641.59;4957463;29;20184;-85
2022/11/01 04:51:03;;;;;;;3.43;1.50;;;;;;;15.21;74.13;95638.94;4941214;29;20247;-85
2022/11/01 04:53:28;;;;;;;3.90;1.55;;;;;;;15.10;74.47;95632.28;4957140;28;20240;-84
2022/11/01 04:55:54;;;;;;;1.92;1.45;;;;;;;15.13;74.78;95646.81;4956832;28;20189;-83
2022/11/01 04:58:22;;;;;;;1.87;1.00;;;;;;;15.09;75.07;95650.75;4958765;28;20193;-83
2022/11/01 05:00:48;;;;;;;2.78;1.30;;;;;;;14.99;75.60;95654.41;4959663;28;20212;-84
2022/11/01 05:03:13;;;;;;;3.03;1.30;;;;;;;14.97;76.55;95663.41;4959268;28;20209;-82
2022/11/01 05:05:39;;;;;;;2.22;1.30;;;;;;;14.91;77.76;95685.00;4957516;28;20201;-82
2022/11/01 05:08:09;;;;;;;4.68;1.73;;;;;;;15.00;78.47;95692.66;4957052;28;20202;-84
2022/11/01 05:10:40;;;;;;;4.47;1.53;;;;;;;14.89;79.17;95707.91;4956808;28;20227;-83
2022/11/01 05:13:05;;;;;;;3.23;1.30;;;;;;;14.68;80.47;95708.50;4957204;28;20189;-82
2022/11/01 05:15:31;;;;;;;1.83;1.43;;;;;;;14.85;80.13;95710.06;4955824;29;20655;-82
2022/11/01 05:17:57;;;;;;;3.30;1.38;;;;;;;14.57;81.82;95724.50;4956046;28;20204;-81
2022/11/01 05:20:22;;;;;;;1.87;1.17;;;;;;;14.49;82.60;95711.47;4956767;29;20599;-82
2022/11/01 05:22:48;;;;;;;2.90;1.20;;;;;;;14.53;82.60;95718.00;4939883;29;20221;-83
2022/11/01 05:25:13;;;;;;;1.63;0.90;;;;;;;14.57;82.63;95706.22;4959254;29;20208;-83
2022/11/01 05:27:38;;;;;;;1.57;1.10;;;;;;;14.54;82.59;95701.34;4959553;28;20197;-81
2022/11/01 05:30:05;;;;;;;2.00;1.30;;;;;;;14.41;83.53;95702.66;4959828;29;20863;-82
2022/11/01 05:32:30;;;;;;;2.13;1.33;;;;;;;14.51;82.82;95693.84;4959461;28;20204;-84
2022/11/01 05:34:55;;;;;;;2.57;0.80;;;;;;;14.47;82.61;95703.00;4959005;28;20201;-83
2022/11/01 05:37:20;;;;;;;1.20;1.10;;;;;;;14.45;82.50;95695.31;4958851;28;20181;-85
2022/11/01 05:39:46;;;;;;;3.43;1.03;;;;;;;14.47;81.94;95697.75;4958604;28;20228;-82
2022/11/01 05:42:11;;;;;;;1.63;0.80;;;;;;;14.55;80.97;95689.91;4959748;28;20188;-84
2022/11/01 05:44:36;;;;;;;0.80;0.80;;;;;;;14.48;81.89;95694.16;4960370;29;20243;-83
2022/11/01 05:47:03;;;;;;;2.67;0.90;;;;;;;14.49;81.08;95691.41;4959972;28;20208;-83
2022/11/01 05:49:29;;;;;;;1.90;1.00;;;;;;;14.52;80.62;95693.69;4960071;28;20197;-84
2022/11/01 05:51:54;;;;;;;2.13;0.80;;;;;;;14.41;80.77;95707.06;4959494;29;20193;-83
2022/11/01 05:54:19;;;;;;;1.23;1.00;;;;;;;14.48;80.63;95707.22;4957594;29;20185;-82
2022/11/01 05:56:45;;;;;;;1.30;0.90;;;;;;;14.37;80.63;95717.03;4959192;28;20205;-82
2022/11/01 05:59:10;;;;;;;2.63;0.80;;;;;;;14.47;80.57;95716.06;4957890;29;20200;-81
2022/11/01 06:01:35;;;;;;;0.73;0.70;;;;;;;14.44;80.76;95731.06;4957398;28;20667;-83
2022/11/01 06:04:00;;;;;;;1.77;1.10;;;;;;;14.39;80.96;95735.13;4957725;29;20291;-83
2022/11/01 06:06:29;;;;;;;2.53;0.80;;;;;;;14.34;81.01;95735.66;4956834;29;20229;-81
2022/11/01 06:08:56;;;;;;;0.70;0.63;;;;;;;14.38;79.98;95738.75;4957543;28;20197;-82
2022/11/01 06:11:21;;;;;;;4.73;1.03;;;;;;;14.37;80.35;95730.09;4957308;29;20289;-85
2022/11/01 06:13:47;;;;;;;1.27;0.70;;;;;;;14.43;79.45;95733.84;4957568;28;20224;-82
2022/11/01 06:16:12;;;;;;;0.80;0.80;;;;;;;14.46;79.31;95738.75;4956346;29;20185;-83
2022/11/01 06:18:37;;;;;;;0.67;0.67;;;;;;;14.47;79.19;95742.19;4957116;28;20201;-84
2022/11/01 06:21:03;;;;;;;1.10;0.90;;;;;;;14.56;78.76;95749.03;4956808;28;20220;-85
2022/11/01 06:23:28;;;;;;;1.63;1.43;;;;;;;14.57;78.88;95756.69;4954569;29;20669;-85
2022/11/01 06:26:01;;;;;;;1.27;0.80;;;;;;;14.52;78.55;95768.63;4956372;29;20208;-85
2022/11/01 06:28:26;;;;;;;1.00;0.70;;;;;;;14.52;78.97;95769.44;4955382;29;20189;-83
2022/11/01 06:30:51;;;;;;;2.33;0.80;;;;;;;14.56;78.92;95769.94;4956821;28;20220;-84
2022/11/01 06:33:16;;;;;;;1.70;0.73;;;;;;;14.59;78.63;95787.91;4956465;28;20173;-84
2022/11/01 06:35:42;;;;;;;1.73;0.90;;;;;;;14.59;78.69;95783.50;4955467;28;20197;-85
2022/11/01 06:38:08;;;;;;;1.30;0.80;;;;;;;14.64;78.36;95780.38;4957042;28;20189;-85
2022/11/01 06:40:34;;;;;;;1.87;0.87;;;;;;;14.58;78.92;95784.47;4955722;28;20818;-84
2022/11/01 06:43:00;;;;;;;2.35;0.77;;;;;;;14.64;78.93;95788.22;4956042;28;20256;-85
2022/11/01 06:45:26;;;;;;;1.23;0.65;;;;;;;14.60;79.02;95787.72;4955675;28;20661;-84
2022/11/01 06:47:51;;;;;;;1.97;0.80;;;;;;;14.54;79.77;95790.19;4954740;28;20212;-83
2022/11/01 06:51:00;;;;;;;2.07;0.77;;;;;;;14.53;80.16;95792.00;5103577;23;20234;-81
2022/11/01 06:54:36;;;;;;;;;;;;;;;;;;;;;
2022/11/01 06:57:04;;;;;;;0.77;0.70;;;;;;;14.47;80.92;95803.09;4979152;28;20203;-85
2022/11/01 06:59:31;;;;;;;1.17;0.63;;;;;;;14.62;80.34;95811.09;4991196;28;20200;-86
2022/11/01 07:01:56;;;;;;;0.77;0.60;;;;;;;14.60;80.65;95816.47;4989859;28;20234;-84
2022/11/01 07:04:22;;;;;;;1.52;1.00;;;;;;;14.54;81.05;95817.13;4987327;28;20240;-84
2022/11/01 07:06:47;;;;;;;1.33;1.23;;;;;;;14.47;81.67;95820.56;4969798;28;20747;-83
2022/11/01 07:09:12;;;;;;;1.13;0.57;;;;;;;14.61;80.67;95815.50;4985554;28;20203;-84
2022/11/01 07:11:38;;;;;;;0.60;0.50;;;;;;;14.70;80.30;95816.31;4972418;28;20212;-84
2022/11/01 07:14:04;;;;;;;0.70;0.60;;;;;;;14.56;81.04;95814.34;4979274;28;20555;-85
2022/11/01 07:16:30;;;;;;;0.60;0.50;;;;;;;14.63;81.08;95812.72;4978707;28;20196;-84
2022/11/01 07:18:55;;;;;;;0.83;0.50;;;;;;;14.41;82.28;95809.78;4980103;28;20239;-84
2022/11/01 07:21:21;;;;;;;1.50;0.70;;;;;;;14.56;81.55;95803.91;4994053;28;20211;-86
2022/11/01 07:23:46;;;;;;;0.60;0.60;;;;;;;14.61;81.36;95806.84;4997985;28;20234;-82
2022/11/01 07:26:12;;;;;;;0.50;0.50;;;;;;;14.67;80.97;95811.41;5016274;28;20176;-82
2022/11/01 07:28:38;;;;;;;1.20;0.60;;;;;;;14.67;81.45;95814.03;5018303;28;20176;-83
2022/11/01 07:31:03;;;;;;;0.70;0.60;;;;;;;14.57;81.76;95813.38;5000960;28;20199;-83
2022/11/01 07:33:29;;;;;;;0.67;0.67;;;;;;;14.60;81.47;95815.66;4995679;28;20175;-83
2022/11/01 07:35:54;;;;;;;0.67;0.60;;;;;;;14.70;80.75;95824.94;4998547;28;20211;-83
2022/11/01 07:38:19;;;;;;;0.63;0.53;;;;;;;14.57;81.77;95831.66;4967375;28;20251;-78
2022/11/01 07:40:48;;;;;;;0.50;0.50;;;;;;;14.63;81.64;95838.84;4979031;28;20212;-82
2022/11/01 07:43:14;;;;;;;0.52;0.50;;;;;;;14.75;80.82;95847.97;4988573;28;20188;-81
2022/11/01 07:45:40;;;;;;;0.40;0.40;;;;;;;14.86;80.38;95852.88;4985188;28;20577;-78
2022/11/01 07:48:09;;;;;;;0.60;0.52;;;;;;;14.82;81.31;95856.78;4989068;28;20194;-80
2022/11/01 07:50:34;;;;;;;0.45;0.40;;;;;;;14.79;82.58;95867.59;4972203;28;20312;-82
2022/11/01 07:53:08;;;;;;;1.33;0.60;;;;;;;14.90;83.37;95869.03;4989080;28;20195;-85
2022/11/01 07:55:34;;;;;;;1.67;0.90;;;;;;;14.39;84.28;95871.81;4976099;28;20184;-84
2022/11/01 07:57:59;;;;;;;1.77;1.07;;;;;;;14.41;84.57;95863.84;4975211;28;20198;-82
2022/11/01 08:00:25;;;;;;;0.70;0.70;;;;;;;14.38;84.43;95867.56;5030389;23;20331;-81
2022/11/01 08:02:50;;;;;;;2.20;1.07;;;;;;;14.35;84.30;95865.28;4989157;28;20212;-83
2022/11/01 08:05:17;;;;;;;1.90;0.90;;;;;;;14.39;84.84;95873.59;4983640;28;20555;-83
2022/11/01 08:07:43;;;;;;;2.42;0.90;;;;;;;14.13;85.45;95874.59;5000740;28;20219;-83
2022/11/01 08:10:12;;;;;;;1.27;0.73;;;;;;;14.01;85.25;95867.22;4982367;28;20212;-84
2022/11/01 08:12:38;;;;;;;1.10;0.80;;;;;;;14.02;86.81;95874.88;4960671;28;20262;-83
2022/11/01 08:15:09;;;;;;;3.17;1.00;;;;;;;13.82;86.24;95876.97;4989571;28;20640;-84
2022/11/01 08:17:37;;;;;;;3.50;0.83;;;;;;;14.10;84.35;95885.34;4992182;28;20253;-83
2022/11/01 08:20:03;;;;;;;3.93;1.27;;;;;;;13.96;82.45;95877.31;4980972;28;20243;-84
2022/11/01 08:22:28;;;;;;;4.37;1.03;;;;;;;14.19;81.79;95886.16;4967366;28;20195;-83
2022/11/01 08:24:54;;;;;;;2.77;0.90;;;;;;;14.26;81.35;95879.31;4982109;28;20203;-84
2022/11/01 08:27:19;;;;;;;3.03;1.00;;;;;;;14.24;80.77;95870.84;4977512;28;20242;-82
2022/11/01 08:30:14;;;;;;;3.97;1.20;;;;;;;14.08;79.06;95886.50;4975611;28;20208;-82
2022/11/01 08:32:42;;;;;;;1.37;0.80;;;;;;;14.34;79.22;95881.94;4981780;28;20249;-84
2022/11/01 08:35:11;;;;;;;2.47;1.10;;;;;;;14.39;77.47;95891.91;4990548;28;20569;-82
2022/11/01 08:37:37;;;;;;;4.53;1.10;;;;;;;14.56;77.77;95885.72;4986561;28;20190;-85
2022/11/01 08:40:30;;;;;;;3.47;1.00;;;;;;;14.57;78.38;95886.53;4993909;28;20686;-84
2022/11/01 08:42:57;;;;;;;2.67;1.30;;;;;;;14.55;78.27;95878.06;4981361;28;20211;-82
2022/11/01 08:45:23;;;;;;;2.37;0.80;;;;;;;14.57;79.06;95891.78;4971103;28;20208;-83
2022/11/01 08:47:51;;;;;;;3.53;1.13;;;;;;;14.48;78.83;95890.13;4967663;28;20208;-83
2022/11/01 08:50:16;;;;;;;3.40;1.10;;;;;;;14.67;77.98;95885.41;4992066;28;20206;-80
2022/11/01 08:52:42;;;;;;;2.93;0.97;;;;;;;14.81;77.15;95888.31;4989538;28;20196;-84
2022/11/01 08:55:30;;;;;;;;;;;;;;;;;;;;;
2022/11/01 08:57:59;;;;;;;1.67;1.00;;;;;;;15.17;75.83;95893.97;4991108;28;20179;-82
2022/11/01 09:00:25;;;;;;;1.87;0.70;;;;;;;15.53;74.72;95900.41;4977302;28;20306;-83
2022/11/01 09:02:50;;;;;;;2.73;1.13;;;;;;;15.52;74.17;95897.97;4991254;28;20299;-83
2022/11/01 09:05:16;;;;;;;2.85;1.42;;;;;;;15.76;73.59;95899.69;4986751;28;20210;-82
2022/11/01 09:07:41;;;;;;;2.87;1.17;;;;;;;15.57;73.97;95909.56;4969106;28;20682;-84
2022/11/01 09:10:07;;;;;;;4.85;1.00;;;;;;;15.85;73.79;95898.69;4980355;28;20211;-84
2022/11/01 09:12:33;;;;;;;2.50;1.00;;;;;;;15.89;73.64;95899.94;4982990;28;20219;-86
2022/11/01 09:14:58;;;;;;;2.25;1.05;;;;;;;16.00;72.96;95902.22;4959132;28;20223;-84
2022/11/01 09:17:23;;;;;;;2.85;0.95;;;;;;;16.19;72.81;95911.41;4976580;28;20707;-85
2022/11/01 09:19:49;;;;;;;3.60;1.10;;;;;;;15.94;71.90;95908.13;4974269;28;20207;-86
2022/11/01 09:22:14;;;;;;;2.95;1.20;;;;;;;16.36;71.38;95906.91;4975186;28;20189;-85
2022/11/01 09:24:39;;;;;;;1.83;1.35;;;;;;;16.24;71.10;95906.47;4982013;28;20200;-85
2022/11/01 09:27:08;;;;;;;1.33;1.10;;;;;;;16.64;70.11;95905.38;4977395;28;20191;-84
2022/11/01 09:29:34;;;;;;;3.50;1.10;;;;;;;16.76;69.40;95907.59;4990639;28;20184;-86
2022/11/01 09:31:59;;;;;;;2.83;1.30;;;;;;;16.87;68.82;95909.78;4974836;28;20198;-86
2022/11/01 09:34:24;;;;;;;1.38;0.90;;;;;;;17.12;67.65;95913.81;4971748;28;20230;-85
2022/11/01 09:36:50;;;;;;;2.65;1.20;;;;;;;16.88;67.77;95911.44;4993101;28;20270;-85
2022/11/01 09:39:16;;;;;;;2.72;1.20;;;;;;;17.02;68.52;95913.25;4987648;28;20180;-83
2022/11/01 09:41:46;;;;;;;4.60;1.17;;;;;;;17.34;67.48;95911.31;4977478;28;20203;-87
2022/11/01 09:44:25;;;;;;;2.55;1.20;;;;;;;17.27;66.83;95919.91;4977117;28;20398;-84
2022/11/01 09:46:53;;;;;;;2.50;1.00;;;;;;;17.11;66.35;95912.19;4973294;28;20281;-83
2022/11/01 09:49:25;;;;;;;4.35;1.20;;;;;;;17.19;65.48;95909.47;4982644;28;20192;-82
2022/11/01 09:51:51;;;;;;;4.80;1.05;;;;;;;17.40;65.34;95923.69;4967955;28;20192;-82
2022/11/01 09:54:19;;;;;;;2.45;1.55;;;;;;;17.34;65.81;95919.19;4981672;28;20239;-82
2022/11/01 09:57:11;;;;;;;2.33;0.95;;;;;;;17.39;65.39;95924.69;4971088;28;20276;-82
2022/11/01 09:59:50;;;;;;;1.30;1.02;;;;;;;17.12;66.68;95918.25;4991990;28;20246;-83
2022/11/01 10:02:24;;;;;;;3.60;1.13;;;;;;;17.32;65.57;95923.81;4970544;28;20193;-84
2022/11/01 10:05:02;;;;;;;1.65;1.00;;;;;;;17.23;65.49;95926.50;4984800;28;20267;-85
2022/11/01 10:08:03;;;;;;;2.40;1.25;;;;;;;16.78;66.43;95931.81;4975233;28;20184;-84
2022/11/01 10:10:38;;;;;;;2.47;1.30;;;;;;;16.80;66.33;95940.34;4983232;28;20315;-84
2022/11/01 10:13:35;;;;;;;5.75;1.70;;;;;;;16.75;66.53;95940.06;4990276;28;20188;-83
2022/11/01 10:16:07;;;;;;;4.43;1.30;;;;;;;16.59;66.98;95936.53;4975847;28;20698;-84
2022/11/01 10:18:43;;;;;;;3.67;1.30;;;;;;;16.56;66.52;95943.94;4980679;28;20228;-83
2022/11/01 10:21:12;;;;;;;2.75;1.30;;;;;;;16.91;65.95;95932.88;4984449;28;20208;-83
2022/11/01 10:23:42;;;;;;;3.58;1.00;;;;;;;16.66;65.92;95939.28;4986460;28;20213;-82
2022/11/01 10:26:12;;;;;;;3.70;1.13;;;;;;;16.84;65.79;95949.47;4975827;28;20235;-83
2022/11/01 10:28:45;;;;;;;5.15;1.40;;;;;;;16.22;66.62;95949.56;4984445;28;20339;-83
2022/11/01 10:31:16;;;;;;;1.70;1.13;;;;;;;16.57;65.83;95938.50;4969882;28;20204;-83
2022/11/01 10:33:54;;;;;;;2.15;1.10;;;;;;;16.60;66.15;95943.41;4970427;28;20176;-83
2022/11/01 10:36:27;;;;;;;3.97;1.20;;;;;;;16.40;66.17;95937.81;4985083;28;20184;-84
2022/11/01 10:38:59;;;;;;;3.53;1.20;;;;;;;16.51;66.22;95947.06;4966381;28;20301;-85
2022/11/01 10:41:28;;;;;;;1.83;1.00;;;;;;;16.51;64.64;95956.75;4990155;28;20295;-85
2022/11/01 10:43:56;;;;;;;2.90;1.45;;;;;;;16.10;65.39;95949.94;5009001;28;20878;-85
2022/11/01 10:46:24;;;;;;;3.40;1.48;;;;;;;15.95;66.22;95943.78;4978606;28;20278;-84
2022/11/01 10:48:56;;;;;;;3.65;1.40;;;;;;;16.10;65.81;95955.19;4973299;28;20187;-84
2022/11/01 10:51:23;;;;;;;5.35;1.38;;;;;;;16.24;65.83;95955.44;4968467;28;20219;-83
2022/11/01 10:53:59;;;;;;;6.13;2.35;;;;;;;16.58;64.95;95950.63;4990254;28;20175;-84
2022/11/01 10:56:32;;;;;;;3.28;1.30;;;;;;;15.96;65.27;95942.00;4990410;28;20197;-84
2022/11/01 10:59:10;;;;;;;3.38;1.27;;;;;;;15.86;65.45;95952.69;4976000;28;20192;-84
2022/11/01 11:01:38;;;;;;;3.33;1.20;;;;;;;16.06;65.30;95948.66;4979645;28;20303;-85
2022/11/01 11:04:05;;;;;;;4.55;1.20;;;;;;;16.23;64.67;95954.63;4986530;28;20221;-84
2022/11/01 11:06:30;;;;;;;2.33;1.25;;;;;;;16.09;64.81;95953.56;4980893;28;20215;-84
2022/11/01 11:08:56;;;;;;;4.13;1.20;;;;;;;16.59;62.45;95947.00;4984683;28;20349;-84
2022/11/01 11:11:31;;;;;;;5.60;1.73;;;;;;;16.77;63.31;95952.00;4977661;28;20239;-85
2022/11/01 11:13:58;;;;;;;6.32;1.42;;;;;;;16.77;66.78;95965.09;4975899;28;20180;-84
2022/11/01 11:16:34;;;;;;;5.10;1.92;;;;;;;16.77;67.25;95959.03;4990167;28;20184;-86
2022/11/01 11:19:33;;;;;;;5.32;1.70;;;;;;;16.45;68.03;95963.50;4984556;28;20192;-85
2022/11/01 11:22:00;;;;;;;3.38;1.48;;;;;;;16.08;68.73;95974.69;4975919;28;20295;-86
2022/11/01 11:24:37;;;;;;;9.38;2.85;;;;;;;16.20;69.54;95960.22;4968042;28;20213;-85
2022/11/01 11:27:10;;;;;;;6.43;1.73;;;;;;;16.04;69.54;95961.09;4975561;28;20192;-85
2022/11/01 11:29:39;;;;;;;5.50;1.60;;;;;;;16.16;69.42;95964.16;4975645;28;20542;-86
2022/11/01 11:32:11;;;;;;;3.45;1.23;;;;;;;16.17;68.18;95959.72;4964227;28;20255;-87
2022/11/01 11:34:37;;;;;;;3.85;1.55;;;;;;;16.04;69.46;95962.91;4982461;28;20179;-85
2022/11/01 11:37:04;;;;;;;6.38;1.40;;;;;;;16.02;69.07;95968.31;4982403;28;20763;-86
2022/11/01 11:39:34;;;;;;;4.63;1.58;;;;;;;15.94;70.18;95970.97;4986163;28;20220;-85
2022/11/01 11:42:13;;;;;;;3.70;1.50;;;;;;;16.00;69.86;95970.31;4991184;28;20257;-86
2022/11/01 11:44:41;;;;;;;8.15;1.60;;;;;;;15.90;69.74;95967.06;4974814;28;20301;-86
2022/11/01 11:47:23;;;;;;;4.78;1.63;;;;;;;15.83;70.04;95969.56;4962174;28;20184;-86
2022/11/01 11:49:52;;;;;;;3.47;1.30;;;;;;;15.97;69.40;95964.56;4968051;28;20239;-86
2022/11/01 11:52:20;;;;;;;4.82;1.90;;;;;;;16.08;69.41;95969.47;4974306;28;20189;-86